MST,Max TemperatureF,Mean TemperatureF,Min TemperatureF,Max Dew PointF,MeanDew PointF,Min DewpointF,Max Humidity, Mean Humidity, Min Humidity, Max Sea Level PressureIn, Mean Sea Level PressureIn, Min Sea Level PressureIn, Max VisibilityMiles, Mean VisibilityMiles, Min VisibilityMiles, Max Wind SpeedMPH, Mean Wind SpeedMPH, Max Gust SpeedMPH,PrecipitationIn, CloudCover, Events, WindDirDegrees
2012-1-1,30,18,5,11,2,-4,80,53,25,30.77,30.58,30.35,10,10,10,15,5,23,0.00,0,,309
2012-1-2,44,29,13,20,15,1,67,52,37,30.65,30.43,30.06,10,10,10,18,6,28,0.00,0,,256
2012-1-3,51,39,26,20,18,15,58,41,24,30.29,30.11,30.01,10,10,10,24,9,40,0.00,0,,287
2012-1-4,52,40,28,22,17,12,63,45,26,30.28,30.21,30.10,10,10,10,20,7,24,0.00,0,,282
2012-1-5,58,47,35,24,20,17,59,41,23,30.07,29.89,29.76,10,10,10,18,9,25,0.00,0,,271
2012-1-6,35,26,16,22,12,7,69,52,35,30.16,30.03,29.78,10,10,10,18,5,29,0.00,2,,309
2012-1-7,30,21,12,12,9,8,84,63,42,30.27,30.16,29.97,10,10,10,9,3,12,0.00,3,,316
2012-1-8,32,21,10,17,11,8,84,62,39,30.28,30.21,30.13,10,10,10,16,7,24,0.00,0,,277
2012-1-9,48,39,29,26,23,18,69,54,39,30.18,30.11,30.01,10,10,10,16,6,25,0.00,0,,293
2012-1-10,49,37,25,27,20,15,70,52,34,29.99,29.83,29.68,10,10,9,21,7,32,T,2,,307
2012-1-11,25,12,-1,14,-4,-25,73,49,24,30.24,30.11,29.85,10,10,9,25,11,40,T,2,Snow,319
2012-1-12,28,16,3,13,0,-21,73,48,22,30.20,30.10,29.92,10,10,10,17,10,28,0.00,3,,325
2012-1-13,36,23,10,18,8,1,84,58,32,30.06,29.98,29.87,10,10,10,29,12,41,0.00,1,,303
2012-1-14,41,28,15,15,7,-2,47,37,27,30.13,29.98,29.74,10,10,10,16,7,23,0.00,1,,261
2012-1-15,48,34,20,17,11,7,68,44,20,29.80,29.69,29.56,10,10,10,28,8,39,0.00,1,,244
2012-1-16,20,10,-1,9,4,-4,95,76,56,30.20,29.86,29.69,10,7,0,10,3,14,0.03,6,Snow,25
2012-1-17,17,5,-7,4,-2,-10,87,67,46,30.27,30.13,29.90,10,10,10,18,8,25,0.00,1,,257
2012-1-18,28,15,1,9,2,-4,95,70,45,29.90,29.80,29.59,10,10,9,25,9,37,0.00,3,,242
2012-1-19,41,20,-2,26,9,-5,95,73,51,29.95,29.75,29.53,10,10,8,22,4,29,0.00,4,,213
2012-1-20,30,21,12,28,16,6,88,72,55,29.90,29.73,29.47,10,10,10,10,5,15,0.00,1,,228
2012-1-21,45,33,20,34,27,18,89,69,49,29.84,29.44,29.21,10,10,4,22,6,30,0.06,3,Rain-Snow,249
2012-1-22,35,27,19,31,20,7,89,68,46,29.84,29.50,29.20,10,8,2,31,12,52,0.03,6,Snow,330
2012-1-23,38,28,18,14,8,1,73,53,32,29.92,29.87,29.81,10,10,10,17,5,25,0.00,0,,275
2012-1-24,34,26,18,23,16,0,84,54,24,30.24,30.08,29.89,10,8,2,13,5,18,0.02,5,Snow,329
2012-1-25,43,31,19,30,18,5,85,61,37,30.10,29.96,29.87,10,7,0,22,11,36,0.06,2,Fog-Snow,280
2012-1-26,38,30,21,25,16,9,69,56,42,30.07,29.89,29.70,10,10,9,17,6,25,T,1,,273
2012-1-27,32,20,8,22,8,-4,69,56,42,30.30,30.07,29.72,10,8,1,22,11,37,T,4,Snow,308
2012-1-28,26,19,11,8,3,0,66,50,33,30.28,30.22,30.14,10,10,10,25,12,37,0.00,1,,282
2012-1-29,46,33,20,22,17,6,57,48,39,30.11,29.96,29.80,10,10,10,23,9,33,0.00,3,,256
2012-1-30,45,36,26,23,18,14,69,50,30,29.83,29.74,29.66,10,10,10,23,9,30,0.00,0,,261
2012-1-31,39,30,21,23,16,14,75,56,37,30.08,29.97,29.78,10,10,10,21,8,30,0.00,0,,288